createdAt,value
2019-05-12T00:00:22.596Z,62.61
2019-05-12T00:02:50.758Z,68.42
2019-05-12T00:05:18.965Z,67.21
2019-05-12T00:07:48.712Z,68.42
2019-05-12T00:10:18.673Z,65.83
2019-05-12T00:12:48.298Z,59.60
2019-05-12T00:15:19.179Z,58.85
2019-05-12T00:17:48.082Z,62.37
2019-05-12T00:20:18.198Z,58.22
2019-05-12T00:22:49.921Z,58.79
2019-05-12T00:25:18.584Z,68.20
2019-05-12T00:27:48.656Z,61.34
2019-05-12T00:30:34.377Z,59.26
2019-05-12T00:33:03.606Z,59.24
2019-05-12T00:35:31.769Z,59.77
2019-05-12T00:37:59.929Z,58.85
2019-05-12T00:40:28.174Z,58.79
2019-05-12T00:42:57.740Z,59.35
2019-05-12T00:45:28.890Z,59.97
2019-05-12T00:47:58.211Z,59.86
2019-05-12T00:50:25.878Z,58.54
2019-05-12T00:52:53.972Z,66.60
2019-05-12T00:55:22.098Z,59.34
2019-05-12T00:57:50.257Z,58.14
2019-05-12T01:00:18.649Z,58.86
2019-05-12T01:02:48.584Z,62.04
2019-05-12T01:05:17.751Z,60.36
2019-05-12T01:07:48.165Z,58.78
2019-05-12T01:10:17.938Z,58.65
2019-05-12T01:12:48.513Z,64.29
2019-05-12T01:15:17.746Z,68.07
2019-05-12T01:17:47.795Z,58.86
2019-05-12T01:20:17.842Z,58.47
2019-05-12T01:22:50.335Z,62.21
2019-05-12T01:25:17.649Z,59.77
2019-05-12T01:27:48.226Z,59.78
2019-05-12T01:30:18.010Z,65.10
2019-05-12T01:32:45.780Z,64.28
2019-05-12T01:35:14.126Z,61.44
2019-05-12T01:37:42.358Z,64.42
2019-05-12T01:40:10.676Z,58.95
2019-05-12T01:42:38.828Z,63.48
2019-05-12T01:45:09.205Z,58.23
2019-05-12T01:47:38.241Z,62.47
2019-05-12T01:50:09.018Z,64.55
2019-05-12T01:52:38.820Z,67.97
2019-05-12T01:55:08.460Z,64.41
2019-05-12T01:57:38.527Z,72.77
2019-05-12T02:00:09.055Z,71.27
2019-05-12T02:02:38.522Z,72.55
2019-05-12T02:08:01.492Z,66.31
2019-05-12T02:10:29.830Z,71.94
2019-05-12T02:12:59.414Z,60.14
2019-05-12T02:15:28.147Z,73.34
2019-05-12T02:17:58.615Z,61.28
2019-05-12T02:20:28.542Z,72.72
2019-05-12T02:22:58.441Z,71.20
2019-05-12T02:25:27.985Z,72.86
2019-05-12T02:27:58.142Z,67.09
2019-05-12T02:30:29.782Z,62.59
2019-05-12T02:32:59.202Z,68.20
2019-05-12T02:35:25.788Z,65.86
2019-05-12T02:37:55.000Z,61.82
2019-05-12T02:40:25.127Z,58.85
2019-05-12T02:42:54.915Z,68.91
2019-05-12T02:45:25.269Z,62.33
2019-05-12T02:47:54.282Z,72.60
2019-05-12T02:50:37.480Z,60.43
2019-05-12T02:53:06.491Z,74.65
2019-05-12T02:55:35.699Z,60.28
2019-05-12T02:58:05.928Z,73.89
2019-05-12T03:00:35.573Z,62.01
2019-05-12T03:03:06.414Z,74.66
2019-05-12T03:05:35.308Z,71.54
2019-05-12T03:08:05.270Z,74.62
2019-05-12T03:10:35.503Z,61.09
2019-05-12T03:13:04.489Z,58.52
2019-05-12T03:15:36.769Z,70.94
2019-05-12T03:18:06.243Z,72.39
2019-05-12T03:20:35.162Z,65.84
2019-05-12T03:23:05.803Z,59.78
2019-05-12T03:25:35.609Z,71.23
2019-05-12T03:28:07.332Z,67.49
2019-05-12T03:30:37.043Z,68.32
2019-05-12T03:33:08.208Z,62.54
2019-05-12T03:35:35.244Z,60.50
2019-05-12T03:38:04.354Z,71.42
2019-05-12T03:40:31.504Z,59.64
2019-05-12T03:42:59.678Z,59.01
2019-05-12T03:45:27.775Z,58.53
2019-05-12T03:47:55.878Z,63.82
2019-05-12T03:50:24.604Z,67.43
2019-05-12T03:52:56.435Z,62.48
2019-05-12T03:55:33.433Z,57.93
2019-05-12T03:57:55.154Z,64.94
2019-05-12T04:00:24.955Z,59.02
2019-05-12T04:02:55.578Z,60.33
2019-05-12T04:05:24.569Z,68.67
2019-05-12T04:07:54.714Z,65.01
2019-05-12T04:10:24.717Z,58.06
2019-05-12T04:12:54.878Z,59.78
2019-05-12T04:15:25.373Z,71.06
2019-05-12T04:17:54.295Z,61.27
2019-05-12T04:20:25.136Z,70.02
2019-05-12T04:22:54.719Z,71.02
2019-05-12T04:25:24.942Z,60.01
2019-05-12T04:27:54.199Z,60.32
2019-05-12T04:30:24.773Z,73.08
2019-05-12T04:32:55.090Z,58.63
2019-05-12T04:35:24.872Z,65.69
2019-05-12T04:37:55.057Z,57.85
2019-05-12T04:40:24.624Z,64.90
2019-05-12T04:42:54.593Z,57.39
2019-05-12T04:45:21.309Z,62.36
2019-05-12T04:47:49.617Z,60.08
2019-05-12T04:50:17.741Z,60.79
2019-05-12T04:52:46.008Z,69.45
2019-05-12T04:55:15.103Z,68.54
2019-05-12T04:57:44.948Z,69.05
2019-05-12T05:00:15.762Z,70.23
2019-05-12T05:02:45.491Z,72.21
2019-05-12T05:05:14.454Z,73.02
2019-05-12T05:07:44.712Z,71.19
2019-05-12T05:10:14.555Z,73.40
2019-05-12T05:12:45.014Z,73.27
2019-05-12T05:15:14.576Z,73.63
2019-05-12T05:17:44.109Z,72.03
2019-05-12T05:20:13.551Z,71.62
2019-05-12T05:22:44.006Z,71.85
2019-05-12T05:25:14.499Z,67.53
2019-05-12T05:27:44.324Z,70.07
2019-05-12T05:30:13.824Z,62.46
2019-05-12T05:32:44.279Z,68.50
2019-05-12T05:35:13.684Z,68.65
2019-05-12T05:37:44.226Z,67.44
2019-05-12T05:40:14.071Z,67.82
2019-05-12T05:42:43.998Z,68.44
2019-05-12T05:45:21.401Z,67.92
2019-05-12T05:47:44.318Z,65.03
2019-05-12T05:50:13.562Z,68.59
2019-05-12T05:52:43.836Z,65.78
2019-05-12T05:55:19.905Z,65.42
2019-05-12T05:57:44.189Z,65.93
2019-05-12T06:00:17.566Z,62.39
2019-05-12T06:02:44.095Z,60.28
2019-05-12T06:05:14.268Z,62.60
2019-05-12T06:07:44.135Z,59.46
2019-05-12T06:10:14.503Z,59.57
2019-05-12T06:12:46.432Z,61.47
2019-05-12T06:15:13.557Z,61.16
2019-05-12T06:17:43.836Z,59.45
2019-05-12T06:20:13.456Z,62.07
2019-05-12T06:22:43.758Z,60.88
2019-05-12T06:25:15.690Z,60.28
2019-05-12T06:27:44.128Z,61.98
2019-05-12T06:30:14.544Z,61.21
2019-05-12T06:32:50.103Z,60.06
2019-05-12T06:35:11.763Z,59.51
2019-05-12T06:37:40.075Z,59.48
2019-05-12T06:40:08.347Z,60.31
2019-05-12T06:42:36.546Z,58.05
2019-05-12T06:45:05.163Z,59.86
2019-05-12T06:47:34.303Z,59.06
2019-05-12T06:50:03.883Z,58.91
2019-05-12T06:52:33.773Z,57.57
2019-05-12T06:55:04.045Z,57.21
2019-05-12T06:57:34.115Z,58.59
2019-05-12T07:00:04.341Z,56.08
2019-05-12T07:02:37.085Z,56.47
2019-05-12T07:05:04.135Z,56.35
2019-05-12T07:07:33.426Z,58.28
2019-05-12T07:10:10.367Z,55.55
2019-05-12T07:12:33.577Z,55.27
2019-05-12T07:15:00.839Z,55.81
2019-05-12T07:17:45.498Z,54.01
2019-05-12T07:20:14.764Z,58.13
2019-05-12T07:22:45.866Z,55.10
2019-05-12T07:25:13.502Z,54.87
2019-05-12T07:27:45.675Z,57.93
2019-05-12T07:33:19.436Z,52.96
2019-05-12T07:35:54.976Z,52.06
2019-05-12T07:38:21.532Z,54.54
2019-05-12T07:41:10.714Z,54.89
2019-05-12T07:43:45.252Z,53.32
2019-05-12T07:46:13.568Z,51.21
2019-05-12T07:48:49.050Z,52.96
2019-05-12T07:51:13.640Z,54.81
2019-05-12T07:53:49.417Z,49.50
2019-05-12T07:56:11.341Z,54.09
2019-05-12T07:58:40.894Z,49.55
2019-05-12T08:01:09.400Z,53.62
2019-05-12T08:03:37.617Z,48.02
2019-05-12T08:06:05.893Z,48.64
2019-05-12T08:08:34.064Z,48.12
2019-05-12T08:11:04.504Z,46.80
2019-05-12T08:13:39.380Z,52.24
2019-05-12T08:16:03.729Z,52.40
2019-05-12T08:18:36.969Z,55.26
2019-05-12T08:21:03.756Z,50.70
2019-05-12T08:23:33.913Z,48.71
2019-05-12T08:26:05.324Z,48.44
2019-05-12T08:28:35.880Z,47.49
2019-05-12T08:31:03.640Z,49.42
2019-05-12T08:33:34.747Z,53.70
2019-05-12T08:36:11.033Z,47.85
2019-05-12T08:38:33.701Z,47.28
2019-05-12T08:41:04.260Z,47.66
2019-05-12T08:43:34.344Z,54.03
2019-05-12T08:46:09.952Z,48.75
2019-05-12T08:48:34.263Z,52.70
2019-05-12T08:51:05.254Z,46.45
2019-05-12T08:53:33.620Z,46.19
2019-05-12T08:56:04.984Z,53.53
2019-05-12T08:58:46.720Z,48.75
2019-05-12T09:01:04.253Z,48.66
2019-05-12T09:03:33.505Z,48.66
2019-05-12T09:06:01.550Z,49.60
2019-05-12T09:08:37.919Z,54.75
2019-05-12T09:11:03.527Z,49.05
2019-05-12T09:13:33.873Z,47.08
2019-05-12T09:16:04.234Z,48.10
2019-05-12T09:18:35.227Z,43.63
2019-05-12T09:21:03.831Z,44.09
2019-05-12T09:23:32.814Z,46.19
2019-05-12T09:26:03.708Z,45.92
2019-05-12T09:28:45.941Z,45.13
2019-05-12T09:31:03.558Z,39.83
2019-05-12T09:33:32.427Z,41.29
2019-05-12T09:36:01.415Z,45.08
2019-05-12T09:38:29.603Z,43.82
2019-05-12T09:41:02.399Z,45.56
2019-05-12T09:43:27.996Z,46.87
2019-05-12T09:45:56.673Z,40.44
2019-05-12T09:48:26.302Z,44.78
2019-05-12T09:51:00.210Z,41.30
2019-05-12T09:53:24.362Z,44.88
2019-05-12T09:55:53.894Z,49.06
2019-05-12T09:58:23.628Z,40.99
2019-05-12T10:00:54.356Z,45.87
2019-05-12T10:03:24.086Z,41.45
2019-05-12T10:05:53.419Z,42.24
2019-05-12T10:08:23.596Z,37.88
2019-05-12T10:10:53.513Z,41.67
2019-05-12T10:13:26.236Z,43.20
2019-05-12T10:15:53.206Z,49.68
2019-05-12T10:18:21.199Z,42.81
2019-05-12T10:20:49.341Z,39.70
2019-05-12T10:23:19.959Z,40.93
2019-05-12T10:25:47.425Z,41.20
2019-05-12T10:28:16.425Z,39.92
2019-05-12T10:30:47.326Z,41.01
2019-05-12T10:33:14.659Z,36.89
2019-05-12T10:35:43.881Z,46.41
2019-05-12T10:38:13.696Z,46.62
2019-05-12T10:40:44.243Z,42.31
2019-05-12T10:43:12.041Z,37.61
2019-05-12T10:45:40.199Z,45.90
2019-05-12T10:48:08.486Z,37.58
2019-05-12T10:50:36.754Z,48.39
2019-05-12T10:53:09.827Z,50.58
2019-05-12T10:55:34.806Z,41.39
2019-05-12T10:58:06.638Z,51.50
2019-05-12T11:00:33.876Z,42.35
2019-05-12T11:03:10.165Z,42.74
2019-05-12T11:05:33.871Z,44.94
2019-05-12T11:08:06.380Z,38.91
2019-05-12T11:10:31.985Z,39.78
2019-05-12T11:13:05.888Z,45.36
2019-05-12T11:15:30.036Z,37.56
2019-05-12T11:18:30.418Z,35.53
2019-05-12T11:20:56.559Z,42.59
2019-05-12T11:23:26.522Z,46.72
2019-05-12T11:25:54.682Z,42.88
2019-05-12T11:28:24.431Z,47.07
2019-05-12T11:30:52.907Z,37.91
2019-05-12T11:33:21.066Z,41.47
2019-05-12T11:35:51.335Z,30.72
2019-05-12T11:38:19.575Z,43.81
2019-05-12T11:40:47.785Z,35.29
2019-05-12T11:43:15.934Z,38.77
2019-05-12T11:45:44.426Z,37.48
2019-05-12T11:48:14.451Z,33.05
2019-05-12T11:50:49.504Z,33.82
2019-05-12T11:53:13.735Z,43.87
2019-05-12T11:55:43.719Z,29.61
2019-05-12T11:58:11.701Z,39.66
2019-05-12T12:00:43.971Z,30.91
2019-05-12T12:03:13.090Z,32.78
2019-05-12T12:05:41.547Z,32.17
2019-05-12T12:08:09.725Z,39.28
2019-05-12T12:10:39.796Z,33.54
2019-05-12T12:13:07.729Z,33.76
2019-05-12T12:15:35.889Z,39.95
2019-05-12T12:18:12.980Z,38.94
2019-05-12T12:20:33.729Z,35.33
2019-05-12T12:23:06.569Z,34.46
2019-05-12T12:25:33.846Z,29.51
2019-05-12T12:28:01.340Z,30.02
2019-05-12T12:30:29.486Z,33.84
2019-05-12T12:33:00.292Z,32.40
2019-05-12T12:35:27.516Z,40.22
2019-05-12T12:37:55.760Z,34.52
2019-05-12T12:40:23.956Z,44.31
2019-05-12T12:42:53.841Z,30.99
2019-05-12T12:45:40.281Z,44.05
2019-05-12T12:48:07.184Z,41.66
2019-05-12T12:50:35.325Z,35.68
2019-05-12T12:53:03.496Z,31.44
2019-05-12T12:55:31.579Z,39.70
2019-05-12T12:57:59.747Z,40.58
2019-05-12T13:00:31.986Z,43.91
2019-05-12T13:02:57.738Z,32.34
2019-05-12T13:05:25.922Z,36.38
2019-05-12T13:07:54.055Z,44.69
2019-05-12T13:10:24.621Z,31.56
2019-05-12T13:12:56.550Z,35.64
2019-05-12T13:15:23.628Z,39.02
2019-05-12T13:17:51.881Z,32.53
2019-05-12T13:20:20.226Z,38.52
2019-05-12T13:22:48.412Z,38.88
2019-05-12T13:25:16.754Z,42.57
2019-05-12T13:27:44.840Z,36.40
2019-05-12T13:30:20.111Z,37.28
2019-05-12T13:32:44.319Z,37.97
2019-05-12T13:35:16.284Z,31.91
2019-05-12T13:37:43.320Z,33.03
2019-05-12T13:40:11.783Z,33.89
2019-05-12T13:42:40.129Z,36.41
2019-05-12T13:45:09.100Z,46.25
2019-05-12T13:47:39.884Z,34.18
2019-05-12T13:50:12.541Z,32.47
2019-05-12T13:52:37.499Z,39.99
2019-05-12T13:55:07.789Z,37.60
2019-05-12T13:57:36.160Z,38.68
2019-05-12T14:00:10.415Z,37.70
2019-05-12T14:02:35.029Z,44.07
2019-05-12T14:05:07.058Z,42.94
2019-05-12T14:07:34.539Z,30.98
2019-05-12T14:10:03.632Z,44.39
2019-05-12T14:12:31.897Z,36.41
2019-05-12T14:15:00.038Z,37.55
2019-05-12T14:17:31.008Z,37.90
2019-05-12T14:19:58.007Z,38.35
2019-05-12T14:22:26.525Z,34.27
2019-05-12T14:24:54.822Z,40.32
2019-05-12T14:27:25.443Z,38.55
2019-05-12T14:29:53.703Z,39.04
2019-05-12T14:32:24.045Z,39.61
2019-05-12T14:34:59.320Z,39.02
2019-05-12T14:37:23.818Z,41.27
2019-05-12T14:39:53.652Z,39.49
2019-05-12T14:42:26.098Z,40.38
2019-05-12T14:44:51.399Z,43.02
2019-05-12T14:47:27.873Z,44.60
2019-05-12T14:49:49.440Z,40.17
2019-05-12T14:52:17.553Z,38.71
2019-05-12T14:54:45.870Z,43.75
2019-05-12T14:57:14.028Z,38.06
2019-05-12T14:59:42.188Z,35.75
2019-05-12T15:02:10.427Z,34.44
2019-05-12T15:04:38.671Z,34.44
2019-05-12T15:07:09.917Z,38.64
2019-05-12T15:09:36.777Z,32.86
2019-05-12T15:12:05.045Z,35.89
2019-05-12T15:14:37.751Z,40.47
2019-05-12T15:17:03.668Z,43.27
2019-05-12T15:19:33.495Z,39.69
2019-05-12T15:22:07.802Z,32.60
2019-05-12T15:24:33.553Z,37.53
2019-05-12T15:27:03.710Z,29.86
2019-05-12T15:29:33.650Z,32.59
2019-05-12T15:32:03.719Z,40.31
2019-05-12T15:34:33.648Z,29.38
2019-05-12T15:37:03.975Z,30.53
2019-05-12T15:39:33.584Z,37.05
2019-05-12T15:42:00.529Z,33.19
2019-05-12T15:44:31.765Z,33.82
2019-05-12T15:46:58.542Z,39.68
2019-05-12T15:49:26.696Z,35.55
2019-05-12T15:51:58.493Z,43.98
2019-05-12T15:54:24.089Z,37.91
2019-05-12T15:56:53.304Z,37.01
2019-05-12T15:59:24.028Z,40.39
2019-05-12T16:01:54.433Z,35.34
2019-05-12T16:04:21.810Z,36.18
2019-05-12T16:06:53.711Z,41.07
2019-05-12T16:09:19.989Z,42.00
2019-05-12T16:11:48.252Z,42.13
2019-05-12T16:14:16.379Z,43.74
2019-05-12T16:16:46.853Z,37.05
2019-05-12T16:19:14.803Z,39.66
2019-05-12T16:21:45.326Z,35.85
2019-05-12T16:24:15.451Z,43.11
2019-05-12T16:26:51.861Z,40.25
2019-05-12T16:29:12.931Z,39.14
2019-05-12T16:31:45.551Z,36.91
2019-05-12T16:34:10.893Z,36.91
2019-05-12T16:36:41.293Z,40.68
2019-05-12T16:39:09.149Z,38.70
2019-05-12T16:41:37.388Z,42.37
2019-05-12T16:44:07.897Z,40.73
2019-05-12T16:46:35.499Z,43.01
2019-05-12T16:49:03.692Z,44.81
2019-05-12T16:51:33.296Z,40.68
2019-05-12T16:54:03.642Z,40.83
2019-05-12T16:56:33.763Z,44.41
2019-05-12T16:59:01.277Z,38.42
2019-05-12T17:01:29.660Z,43.41
2019-05-12T17:03:57.859Z,39.72
2019-05-12T17:06:28.597Z,40.13
2019-05-12T17:08:56.078Z,41.10
2019-05-12T17:11:30.406Z,43.18
2019-05-12T17:13:56.713Z,38.93
2019-05-12T17:16:24.025Z,41.63
2019-05-12T17:18:53.320Z,37.98
2019-05-12T17:21:21.592Z,39.66
2019-05-12T17:23:49.701Z,41.10
2019-05-12T17:26:17.964Z,37.19
2019-05-12T17:28:46.236Z,39.18
2019-05-12T17:31:14.419Z,40.50
2019-05-12T17:33:42.679Z,37.47
2019-05-12T17:36:12.421Z,40.05
2019-05-12T17:38:40.868Z,36.65
2019-05-12T17:41:09.010Z,40.39
2019-05-12T17:43:45.038Z,40.05
2019-05-12T17:46:06.596Z,33.57
2019-05-12T17:48:37.179Z,37.06
2019-05-12T17:51:04.668Z,35.70
2019-05-12T17:53:36.126Z,34.00
2019-05-12T17:56:04.794Z,36.23
2019-05-12T17:58:36.762Z,39.61
2019-05-12T18:01:03.610Z,33.08
2019-05-12T18:03:34.158Z,36.20
2019-05-12T18:06:04.110Z,32.46
2019-05-12T18:08:33.156Z,38.33
2019-05-12T18:11:03.709Z,33.35
2019-05-12T18:13:34.252Z,33.23
2019-05-12T18:16:05.328Z,36.44
2019-05-12T18:18:37.144Z,35.56
2019-05-12T18:21:03.566Z,34.53
2019-05-12T18:23:31.555Z,34.31
2019-05-12T18:26:05.785Z,34.10
2019-05-12T18:28:29.657Z,34.54
2019-05-12T18:30:57.799Z,36.61
2019-05-12T18:33:33.389Z,35.68
2019-05-12T18:35:55.915Z,38.04
2019-05-12T18:38:26.880Z,38.08
2019-05-12T18:40:55.145Z,35.49
2019-05-12T18:43:24.307Z,36.76
2019-05-12T18:45:57.079Z,39.48
2019-05-12T18:48:26.148Z,37.50
2019-05-12T18:50:54.037Z,36.40
2019-05-12T18:53:27.967Z,37.72
2019-05-12T18:55:53.938Z,38.17
2019-05-12T18:58:30.750Z,38.52
2019-05-12T19:00:53.947Z,39.17
2019-05-12T19:03:21.968Z,39.61
2019-05-12T19:05:50.133Z,37.09
2019-05-12T19:08:20.304Z,37.91
2019-05-12T19:10:51.562Z,40.29
2019-05-12T19:13:18.173Z,37.75
2019-05-12T19:15:46.415Z,40.39
2019-05-12T19:18:18.091Z,41.19
2019-05-12T19:20:47.921Z,41.33
2019-05-12T19:23:14.545Z,42.23
2019-05-12T19:25:43.679Z,41.11
2019-05-12T19:28:13.466Z,42.30
2019-05-12T19:30:43.600Z,42.48
2019-05-12T19:33:13.600Z,41.29
2019-05-12T19:35:41.431Z,42.42
2019-05-12T19:38:09.595Z,42.95
2019-05-12T19:40:37.763Z,41.99
2019-05-12T19:43:08.103Z,42.52
2019-05-12T19:45:36.045Z,43.37
2019-05-12T19:48:04.309Z,41.67
2019-05-12T19:50:32.356Z,41.49
2019-05-12T19:53:00.671Z,44.65
2019-05-12T19:55:28.805Z,43.16
2019-05-12T19:57:57.038Z,41.77
2019-05-12T20:00:25.513Z,43.91
2019-05-12T20:02:53.858Z,44.46
2019-05-12T20:05:23.759Z,44.63
2019-05-12T20:07:53.685Z,44.30
2019-05-12T20:10:24.162Z,44.89
2019-05-12T20:12:54.577Z,43.43
2019-05-12T20:15:24.119Z,45.88
2019-05-12T20:17:53.570Z,45.24
2019-05-12T20:20:28.933Z,45.30
2019-05-12T20:22:54.055Z,44.50
2019-05-12T20:25:23.669Z,46.13
2019-05-12T20:27:55.797Z,46.66
2019-05-12T20:30:23.930Z,45.97
2019-05-12T20:32:53.894Z,46.02
2019-05-12T20:35:21.548Z,45.37
2019-05-12T20:37:52.952Z,47.21
2019-05-12T20:40:19.651Z,46.45
2019-05-12T20:43:07.244Z,44.26
2019-05-12T20:45:17.799Z,44.66
2019-05-12T20:47:47.679Z,47.06
2019-05-12T20:50:16.139Z,43.90
2019-05-12T20:52:51.274Z,45.93
2019-05-12T20:55:14.744Z,46.55
2019-05-12T20:57:51.813Z,44.27
2019-05-12T21:00:14.165Z,43.84
2019-05-12T21:02:44.287Z,42.91
2019-05-12T21:05:16.749Z,42.99
2019-05-12T21:07:42.974Z,42.92
2019-05-12T21:10:11.351Z,43.17
2019-05-12T21:12:40.085Z,43.50
2019-05-12T21:15:16.552Z,43.19
2019-05-12T21:17:43.456Z,43.17
2019-05-12T21:20:14.360Z,43.38
2019-05-12T21:22:39.208Z,43.58
2019-05-12T21:25:10.510Z,43.71
2019-05-12T21:27:37.692Z,43.91
2019-05-12T21:30:10.180Z,44.11
2019-05-12T21:32:35.989Z,44.27
2019-05-12T21:35:18.187Z,44.40
2019-05-12T21:37:37.051Z,44.85
2019-05-12T21:40:06.243Z,44.83
2019-05-12T21:42:35.406Z,44.99
2019-05-12T21:45:04.535Z,45.19
2019-05-12T21:47:36.329Z,45.16
2019-05-12T21:50:03.490Z,45.43
2019-05-12T21:52:37.217Z,45.48
2019-05-12T21:55:03.774Z,45.77
2019-05-12T21:57:34.393Z,45.78
2019-05-12T22:00:04.609Z,45.92
2019-05-12T22:02:31.556Z,46.03
2019-05-12T22:04:59.807Z,45.89
2019-05-12T22:07:29.532Z,46.25
2019-05-12T22:09:58.158Z,46.36
2019-05-12T22:12:28.604Z,46.26
2019-05-12T22:14:56.216Z,53.59
2019-05-12T22:17:24.376Z,46.79
2019-05-12T22:19:53.576Z,46.65
2019-05-12T22:22:25.753Z,46.70
2019-05-12T22:24:53.772Z,54.55
2019-05-12T22:27:26.883Z,55.20
2019-05-12T22:29:51.502Z,47.96
2019-05-12T22:32:25.306Z,48.01
2019-05-12T22:34:49.615Z,47.32
2019-05-12T22:37:17.759Z,47.82
2019-05-12T22:39:46.049Z,48.08
2019-05-12T22:42:19.845Z,47.65
2019-05-12T22:44:44.256Z,47.62
2019-05-12T22:47:16.149Z,47.52
2019-05-12T22:49:44.254Z,47.53
2019-05-12T22:52:13.662Z,47.43
2019-05-12T22:54:46.938Z,55.29
2019-05-12T22:57:13.572Z,52.97
2019-05-12T22:59:44.208Z,51.91
2019-05-12T23:02:15.951Z,50.39
2019-05-12T23:04:43.817Z,48.86
2019-05-12T23:07:13.636Z,48.64
2019-05-12T23:09:43.437Z,48.06
2019-05-12T23:12:18.471Z,48.87
2019-05-12T23:14:41.076Z,48.36
2019-05-12T23:17:09.376Z,48.46
2019-05-12T23:19:42.999Z,48.71
2019-05-12T23:22:07.427Z,62.87
2019-05-12T23:24:40.525Z,64.09
2019-05-12T23:27:08.590Z,62.87
2019-05-12T23:29:35.331Z,50.65
2019-05-12T23:32:07.449Z,49.03
2019-05-12T23:34:33.975Z,48.94
2019-05-12T23:37:03.786Z,48.64
2019-05-12T23:39:37.488Z,49.33
2019-05-12T23:42:04.179Z,48.70
2019-05-12T23:44:33.388Z,48.23
2019-05-12T23:47:04.072Z,48.33
2019-05-12T23:49:33.738Z,48.66
2019-05-12T23:52:03.818Z,48.72
2019-05-12T23:54:31.393Z,48.60
2019-05-12T23:56:59.555Z,50.23
2019-05-12T23:59:27.695Z,49.47
